createdAt,value
2023-05-10T00:00:09.730Z,993.00
2023-05-10T00:01:09.721Z,998.00
2023-05-10T00:02:09.836Z,996.00
2023-05-10T00:03:09.887Z,1004.00
2023-05-10T00:04:09.980Z,1009.00
2023-05-10T00:05:09.819Z,997.00
2023-05-10T00:06:09.859Z,1002.00
2023-05-10T00:07:09.891Z,996.00
2023-05-10T00:08:09.936Z,1001.00
2023-05-10T00:09:09.906Z,1018.00
2023-05-10T00:10:09.933Z,1001.00
2023-05-10T00:11:09.998Z,1005.00
2023-05-10T00:12:10.019Z,1017.00
2023-05-10T00:13:10.079Z,1019.00
2023-05-10T00:14:10.035Z,1002.00
2023-05-10T00:15:10.092Z,1013.00
2023-05-10T00:16:10.091Z,1021.00
2023-05-10T00:17:10.120Z,1018.00
2023-05-10T00:18:10.163Z,1011.00
2023-05-10T00:19:10.178Z,1018.00
2023-05-10T00:20:10.177Z,1019.00
2023-05-10T00:21:10.219Z,1009.00
2023-05-10T00:22:10.214Z,1019.00
2023-05-10T00:23:10.244Z,1007.00
2023-05-10T00:24:10.267Z,1014.00
2023-05-10T00:25:10.290Z,1020.00
2023-05-10T00:26:10.283Z,1034.00
2023-05-10T00:27:10.321Z,1023.00
2023-05-10T00:28:10.366Z,1026.00
2023-05-10T00:29:10.360Z,1035.00
2023-05-10T00:30:10.390Z,1038.00
2023-05-10T00:31:10.393Z,1034.00
2023-05-10T00:32:10.484Z,1035.00
2023-05-10T00:33:10.516Z,1024.00
2023-05-10T00:34:10.436Z,1049.00
2023-05-10T00:35:10.446Z,1027.00
2023-05-10T00:36:10.448Z,1035.00
2023-05-10T00:37:10.505Z,1039.00
2023-05-10T00:38:10.491Z,1029.00
2023-05-10T00:39:10.531Z,1024.00
2023-05-10T00:40:10.549Z,1030.00
2023-05-10T00:41:10.575Z,1028.00
2023-05-10T00:42:10.600Z,1038.00
2023-05-10T00:43:10.601Z,1049.00
2023-05-10T00:44:10.622Z,1039.00
2023-05-10T00:45:10.651Z,1047.00
2023-05-10T00:46:10.689Z,1038.00
2023-05-10T00:47:10.674Z,1048.00
2023-05-10T00:48:10.733Z,1052.00
2023-05-10T00:49:10.756Z,1043.00
2023-05-10T00:50:10.778Z,1036.00
2023-05-10T00:51:10.797Z,1068.00
2023-05-10T00:52:10.794Z,1055.00
2023-05-10T00:53:10.826Z,1063.00
2023-05-10T00:54:10.863Z,1058.00
2023-05-10T00:55:10.889Z,1061.00
2023-05-10T00:56:10.897Z,1077.00
2023-05-10T00:57:10.914Z,1071.00
2023-05-10T00:58:10.932Z,1057.00
2023-05-10T00:59:10.926Z,1078.00
2023-05-10T01:00:10.978Z,1066.00
2023-05-10T01:01:11.041Z,1066.00
2023-05-10T01:02:11.037Z,1082.00
2023-05-10T01:03:11.077Z,1076.00
2023-05-10T01:04:11.031Z,1075.00
2023-05-10T01:05:11.158Z,1087.00
2023-05-10T01:06:11.095Z,1080.00
2023-05-10T01:07:11.103Z,1078.00
2023-05-10T01:08:11.146Z,1084.00
2023-05-10T01:09:11.172Z,1094.00
2023-05-10T01:10:11.175Z,1099.00
2023-05-10T01:11:11.213Z,1102.00
2023-05-10T01:12:11.282Z,1090.00
2023-05-10T01:13:11.260Z,1087.00
2023-05-10T01:14:11.255Z,1093.00
2023-05-10T01:15:11.266Z,1100.00
2023-05-10T01:16:11.368Z,1092.00
2023-05-10T01:17:11.344Z,1093.00
2023-05-10T01:18:11.361Z,1099.00
2023-05-10T01:19:11.386Z,1106.00
2023-05-10T01:20:11.429Z,1108.00
2023-05-10T01:21:11.426Z,1103.00
2023-05-10T01:22:11.470Z,1105.00
2023-05-10T01:23:11.492Z,1109.00
2023-05-10T01:24:11.504Z,1110.00
2023-05-10T01:25:11.517Z,1103.00
2023-05-10T01:26:11.551Z,1115.00
2023-05-10T01:27:11.575Z,1116.00
2023-05-10T01:28:11.595Z,1120.00
2023-05-10T01:29:11.626Z,1115.00
2023-05-10T01:30:16.009Z,1116.00
2023-05-10T01:31:11.658Z,1117.00
2023-05-10T01:32:11.637Z,1119.00
2023-05-10T01:33:11.627Z,1123.00
2023-05-10T01:34:11.622Z,1119.00
2023-05-10T01:35:11.622Z,1134.00
2023-05-10T01:36:11.603Z,1128.00
2023-05-10T01:37:11.558Z,1135.00
2023-05-10T01:38:11.582Z,1133.00
2023-05-10T01:39:11.564Z,1136.00
2023-05-10T01:40:11.550Z,1138.00
2023-05-10T01:41:11.573Z,1141.00
2023-05-10T01:42:11.526Z,1139.00
2023-05-10T01:43:11.541Z,1137.00
2023-05-10T01:44:11.549Z,1148.00
2023-05-10T01:45:11.513Z,1135.00
2023-05-10T01:46:11.650Z,1136.00
2023-05-10T01:47:11.496Z,1134.00
2023-05-10T01:48:11.574Z,1142.00
2023-05-10T01:49:11.511Z,1131.00
2023-05-10T01:50:11.505Z,1132.00
2023-05-10T01:51:11.492Z,1145.00
2023-05-10T01:52:11.502Z,1139.00
2023-05-10T01:53:11.471Z,1134.00
2023-05-10T01:54:11.437Z,1140.00
2023-05-10T01:55:11.437Z,1148.00
2023-05-10T01:56:11.476Z,1136.00
2023-05-10T01:57:11.449Z,1144.00
2023-05-10T01:58:11.440Z,1155.00
2023-05-10T01:59:11.438Z,1141.00
2023-05-10T02:00:11.417Z,1148.00
2023-05-10T02:01:11.479Z,1143.00
2023-05-10T02:02:11.403Z,1144.00
2023-05-10T02:03:11.503Z,1143.00
2023-05-10T02:04:11.487Z,1180.00
2023-05-10T02:05:11.415Z,1158.00
2023-05-10T02:06:11.402Z,1158.00
2023-05-10T02:07:11.375Z,1165.00
2023-05-10T02:08:11.379Z,1156.00
2023-05-10T02:09:11.369Z,1172.00
2023-05-10T02:10:11.355Z,1149.00
2023-05-10T02:11:11.388Z,1151.00
2023-05-10T02:12:11.392Z,1175.00
2023-05-10T02:13:11.426Z,1171.00
2023-05-10T02:14:11.402Z,1151.00
2023-05-10T02:15:11.433Z,1162.00
2023-05-10T02:16:11.491Z,1176.00
2023-05-10T02:17:11.459Z,1153.00
2023-05-10T02:18:11.511Z,1165.00
2023-05-10T02:19:11.519Z,1163.00
2023-05-10T02:20:11.509Z,1173.00
2023-05-10T02:21:11.556Z,1177.00
2023-05-10T02:22:11.527Z,1175.00
2023-05-10T02:23:11.599Z,1167.00
2023-05-10T02:24:11.586Z,1174.00
2023-05-10T02:25:11.586Z,1166.00
2023-05-10T02:26:11.625Z,1167.00
2023-05-10T02:27:11.638Z,1192.00
2023-05-10T02:28:11.685Z,1166.00
2023-05-10T02:29:11.666Z,1170.00
2023-05-10T02:30:11.732Z,1173.00
2023-05-10T02:31:11.724Z,1169.00
2023-05-10T02:32:11.879Z,1176.00
2023-05-10T02:33:11.720Z,1180.00
2023-05-10T02:34:11.756Z,1173.00
2023-05-10T02:35:11.752Z,1176.00
2023-05-10T02:36:11.812Z,1170.00
2023-05-10T02:37:11.801Z,1184.00
2023-05-10T02:38:11.828Z,1183.00
2023-05-10T02:39:11.813Z,1175.00
2023-05-10T02:40:11.873Z,1195.00
2023-05-10T02:41:11.890Z,1184.00
2023-05-10T02:42:11.920Z,1179.00
2023-05-10T02:43:11.910Z,1192.00
2023-05-10T02:44:11.933Z,1173.00
2023-05-10T02:45:11.935Z,1192.00
2023-05-10T02:46:11.960Z,1182.00
2023-05-10T02:47:11.957Z,1190.00
2023-05-10T02:48:11.992Z,1194.00
2023-05-10T02:49:11.994Z,1188.00
2023-05-10T02:50:12.014Z,1197.00
2023-05-10T02:51:12.046Z,1186.00
2023-05-10T02:52:12.051Z,1200.00
2023-05-10T02:53:12.080Z,1197.00
2023-05-10T02:54:12.084Z,1188.00
2023-05-10T02:55:12.085Z,1200.00
2023-05-10T02:56:12.076Z,1201.00
2023-05-10T02:57:12.110Z,1197.00
2023-05-10T02:58:12.200Z,1191.00
2023-05-10T02:59:12.114Z,1201.00
2023-05-10T03:00:12.114Z,1200.00
2023-05-10T03:01:12.192Z,1201.00
2023-05-10T03:02:12.145Z,1206.00
2023-05-10T03:03:12.179Z,1198.00
2023-05-10T03:04:12.205Z,1199.00
2023-05-10T03:05:12.192Z,1218.00
2023-05-10T03:06:12.219Z,1202.00
2023-05-10T03:07:12.217Z,1195.00
2023-05-10T03:08:12.250Z,1214.00
2023-05-10T03:09:12.268Z,1209.00
2023-05-10T03:10:12.317Z,1206.00
2023-05-10T03:11:12.321Z,1207.00
2023-05-10T03:12:12.349Z,1220.00
2023-05-10T03:13:12.443Z,1189.00
2023-05-10T03:14:12.409Z,1199.00
2023-05-10T03:15:12.386Z,1209.00
2023-05-10T03:16:12.410Z,1206.00
2023-05-10T03:17:12.425Z,1208.00
2023-05-10T03:18:12.495Z,1205.00
2023-05-10T03:19:12.490Z,1205.00
2023-05-10T03:20:12.480Z,1213.00
2023-05-10T03:21:12.475Z,1216.00
2023-05-10T03:22:12.502Z,1211.00
2023-05-10T03:23:12.528Z,1217.00
2023-05-10T03:24:12.533Z,1210.00
2023-05-10T03:25:12.588Z,1202.00
2023-05-10T03:26:12.578Z,1206.00
2023-05-10T03:27:12.607Z,1212.00
2023-05-10T03:28:12.609Z,1212.00
2023-05-10T03:29:12.605Z,1215.00
2023-05-10T03:30:12.656Z,1211.00
2023-05-10T03:31:12.751Z,1216.00
2023-05-10T03:32:12.706Z,1212.00
2023-05-10T03:33:12.709Z,1211.00
2023-05-10T03:34:12.716Z,1211.00
2023-05-10T03:35:12.747Z,1223.00
2023-05-10T03:36:12.773Z,1217.00
2023-05-10T03:37:12.758Z,1205.00
2023-05-10T03:38:12.807Z,1214.00
2023-05-10T03:39:12.822Z,1216.00
2023-05-10T03:40:12.844Z,1200.00
2023-05-10T03:41:12.876Z,1213.00
2023-05-10T03:42:12.927Z,1225.00
2023-05-10T03:43:12.915Z,1211.00
2023-05-10T03:44:12.928Z,1221.00
2023-05-10T03:45:12.977Z,1221.00
2023-05-10T03:46:12.972Z,1217.00
2023-05-10T03:47:12.939Z,1208.00
2023-05-10T03:48:13.008Z,1212.00
2023-05-10T03:49:13.029Z,1223.00
2023-05-10T03:50:13.016Z,1223.00
2023-05-10T03:51:13.005Z,1219.00
2023-05-10T03:52:13.027Z,1219.00
2023-05-10T03:53:13.113Z,1221.00
2023-05-10T03:54:13.064Z,1218.00
2023-05-10T03:55:13.114Z,1221.00
2023-05-10T03:56:13.097Z,1219.00
2023-05-10T03:57:13.149Z,1214.00
2023-05-10T03:58:13.165Z,1222.00
2023-05-10T03:59:13.184Z,1214.00
2023-05-10T04:00:13.170Z,1228.00
2023-05-10T04:01:13.205Z,1215.00
2023-05-10T04:02:13.305Z,1218.00
2023-05-10T04:03:13.280Z,1232.00
2023-05-10T04:04:13.393Z,1215.00
2023-05-10T04:05:13.315Z,1230.00
2023-05-10T04:06:13.331Z,1216.00
2023-05-10T04:07:13.315Z,1205.00
2023-05-10T04:08:13.327Z,1223.00
2023-05-10T04:09:13.355Z,1229.00
2023-05-10T04:10:13.344Z,1233.00
2023-05-10T04:11:13.381Z,1234.00
2023-05-10T04:12:13.383Z,1230.00
2023-05-10T04:13:13.456Z,1214.00
2023-05-10T04:14:13.453Z,1212.00
2023-05-10T04:15:13.443Z,1218.00
2023-05-10T04:16:13.443Z,1209.00
2023-05-10T04:17:13.644Z,1213.00
2023-05-10T04:18:13.449Z,1221.00
2023-05-10T04:19:13.481Z,1233.00
2023-05-10T04:20:13.540Z,1213.00
2023-05-10T04:21:13.493Z,1211.00
2023-05-10T04:22:13.491Z,1196.00
2023-05-10T04:23:13.507Z,1228.00
2023-05-10T04:24:13.606Z,1209.00
2023-05-10T04:25:13.537Z,1206.00
2023-05-10T04:26:13.570Z,1215.00
2023-05-10T04:27:13.569Z,1218.00
2023-05-10T04:28:13.593Z,1220.00
2023-05-10T04:29:13.610Z,1202.00
2023-05-10T04:30:13.616Z,1214.00
2023-05-10T04:31:13.656Z,1217.00
2023-05-10T04:32:13.660Z,1215.00
2023-05-10T04:33:13.660Z,1218.00
2023-05-10T04:34:13.671Z,1212.00
2023-05-10T04:35:13.681Z,1231.00
2023-05-10T04:36:13.694Z,1226.00
2023-05-10T04:37:13.702Z,1220.00
2023-05-10T04:38:13.720Z,1216.00
2023-05-10T04:39:13.739Z,1213.00
2023-05-10T04:40:13.846Z,1211.00
2023-05-10T04:41:13.764Z,1222.00
2023-05-10T04:42:13.791Z,1209.00
2023-05-10T04:43:13.807Z,1234.00
2023-05-10T04:44:13.818Z,1210.00
2023-05-10T04:45:13.802Z,1221.00
2023-05-10T04:46:13.881Z,1210.00
2023-05-10T04:47:13.836Z,1211.00
2023-05-10T04:48:13.859Z,1210.00
2023-05-10T04:49:13.851Z,1203.00
2023-05-10T04:50:13.903Z,1203.00
2023-05-10T04:51:13.890Z,1204.00
2023-05-10T04:52:13.898Z,1200.00
2023-05-10T04:53:15.873Z,1202.00
2023-05-10T04:54:13.907Z,1205.00
2023-05-10T04:55:13.909Z,1216.00
2023-05-10T04:56:13.948Z,1208.00
2023-05-10T04:57:13.934Z,1212.00
2023-05-10T04:58:13.938Z,1221.00
2023-05-10T04:59:13.938Z,1219.00
2023-05-10T05:00:14.073Z,1216.00
2023-05-10T05:01:21.027Z,1210.00
2023-05-10T05:02:13.958Z,1212.00
2023-05-10T05:03:14.078Z,1214.00
2023-05-10T05:04:13.940Z,1215.00
2023-05-10T05:05:13.950Z,1228.00
2023-05-10T05:06:14.779Z,1225.00
2023-05-10T05:07:13.947Z,1222.00
2023-05-10T05:08:13.952Z,1220.00
2023-05-10T05:09:13.931Z,1208.00
2023-05-10T05:10:14.009Z,1197.00
2023-05-10T05:11:13.919Z,1207.00
2023-05-10T05:12:13.936Z,1225.00
2023-05-10T05:13:13.947Z,1207.00
2023-05-10T05:14:13.895Z,1203.00
2023-05-10T05:15:13.872Z,1237.00
2023-05-10T05:16:13.936Z,1212.00
2023-05-10T05:17:13.901Z,1223.00
2023-05-10T05:18:13.872Z,1203.00
2023-05-10T05:19:13.875Z,1218.00
2023-05-10T05:20:13.940Z,1219.00
2023-05-10T05:21:13.888Z,1223.00
2023-05-10T05:22:13.854Z,1214.00
2023-05-10T05:23:13.887Z,1204.00
2023-05-10T05:24:13.879Z,1207.00
2023-05-10T05:25:13.886Z,1205.00
2023-05-10T05:26:13.896Z,1209.00
2023-05-10T05:27:13.824Z,1198.00
2023-05-10T05:28:13.823Z,1210.00
2023-05-10T05:29:13.813Z,1205.00
2023-05-10T05:30:13.806Z,1215.00
2023-05-10T05:31:13.854Z,1195.00
2023-05-10T05:32:13.820Z,1207.00
2023-05-10T05:33:13.791Z,1205.00
2023-05-10T05:34:13.808Z,1253.00
2023-05-10T05:35:13.783Z,1523.00
2023-05-10T05:36:13.787Z,1629.00
2023-05-10T05:37:13.756Z,1614.00
2023-05-10T05:38:13.804Z,1731.00
2023-05-10T05:39:13.818Z,1727.00
2023-05-10T05:40:13.756Z,1798.00
2023-05-10T05:41:13.789Z,1728.00
2023-05-10T05:42:13.760Z,1696.00
2023-05-10T05:43:13.758Z,1692.00
2023-05-10T05:44:13.875Z,1683.00
2023-05-10T05:45:13.798Z,1681.00
2023-05-10T05:46:20.794Z,1741.00
2023-05-10T05:47:13.743Z,1743.00
2023-05-10T05:48:13.722Z,1743.00
2023-05-10T05:49:13.683Z,1743.00
2023-05-10T05:50:13.683Z,1802.00
2023-05-10T05:51:13.667Z,1813.00
2023-05-10T05:52:13.643Z,1873.00
2023-05-10T05:53:13.689Z,1890.00
2023-05-10T05:54:13.822Z,1830.00
2023-05-10T05:55:13.665Z,1804.00
2023-05-10T05:56:13.614Z,1830.00
2023-05-10T05:57:13.671Z,1796.00
2023-05-10T05:58:13.641Z,1793.00
2023-05-10T05:59:13.826Z,1774.00
2023-05-10T06:00:13.616Z,1735.00
2023-05-10T06:01:13.621Z,1724.00
2023-05-10T06:02:13.675Z,1716.00
2023-05-10T06:03:13.677Z,1709.00
2023-05-10T06:04:13.705Z,1708.00
2023-05-10T06:05:13.631Z,1688.00
2023-05-10T06:06:13.600Z,1647.00
2023-05-10T06:07:13.602Z,1628.00
2023-05-10T06:08:13.575Z,1634.00
2023-05-10T06:09:13.858Z,1611.00
2023-05-10T06:10:13.567Z,1607.00
2023-05-10T06:11:13.575Z,1569.00
2023-05-10T06:12:13.537Z,1555.00
2023-05-10T06:13:13.564Z,1537.00
2023-05-10T06:14:13.834Z,1529.00
2023-05-10T06:15:13.785Z,1510.00
2023-05-10T06:16:13.744Z,1497.00
2023-05-10T06:17:13.694Z,1496.00
2023-05-10T06:18:13.838Z,1480.00
2023-05-10T06:19:13.806Z,1482.00
2023-05-10T06:20:13.844Z,1424.00
2023-05-10T06:21:13.867Z,1395.00
2023-05-10T06:22:13.901Z,1371.00
2023-05-10T06:23:13.974Z,1395.00
2023-05-10T06:24:14.033Z,1393.00
2023-05-10T06:25:14.177Z,1396.00
2023-05-10T06:26:14.143Z,1401.00
2023-05-10T06:27:14.195Z,1394.00
2023-05-10T06:28:14.209Z,1359.00
2023-05-10T06:29:14.276Z,1360.00
2023-05-10T06:30:14.367Z,1374.00
2023-05-10T06:31:14.372Z,1361.00
2023-05-10T06:32:14.377Z,1322.00
2023-05-10T06:33:14.463Z,1340.00
2023-05-10T06:34:14.496Z,1330.00
2023-05-10T06:35:14.612Z,1345.00
2023-05-10T06:36:14.622Z,1349.00
2023-05-10T06:37:14.648Z,1327.00
2023-05-10T06:38:14.672Z,1310.00
2023-05-10T06:39:14.787Z,1286.00
2023-05-10T06:40:14.779Z,1254.00
2023-05-10T06:41:14.832Z,1217.00
2023-05-10T06:42:14.857Z,1218.00
2023-05-10T06:43:15.820Z,1223.00
2023-05-10T06:44:15.946Z,1225.00
2023-05-10T06:45:15.051Z,1215.00
2023-05-10T06:46:14.974Z,1219.00
2023-05-10T06:47:14.883Z,1198.00
2023-05-10T06:48:15.022Z,1204.00
2023-05-10T06:49:14.916Z,1208.00
2023-05-10T06:50:14.978Z,1205.00
2023-05-10T06:51:14.891Z,1209.00
2023-05-10T06:52:14.852Z,1208.00
2023-05-10T06:53:14.872Z,1221.00
2023-05-10T06:54:14.837Z,1228.00
2023-05-10T06:55:15.114Z,1213.00
2023-05-10T06:56:14.860Z,1211.00
2023-05-10T06:57:27.519Z,1203.00
2023-05-10T06:58:15.870Z,1204.00
2023-05-10T06:59:14.852Z,1207.00
2023-05-10T07:00:14.980Z,1207.00
2023-05-10T07:01:15.068Z,1179.00
2023-05-10T07:02:15.006Z,1163.00
2023-05-10T07:03:14.831Z,1136.00
2023-05-10T07:04:14.862Z,1151.00
2023-05-10T07:05:14.811Z,1094.00
2023-05-10T07:06:29.512Z,1073.00
2023-05-10T07:07:15.805Z,1074.00
2023-05-10T07:08:14.760Z,1078.00
2023-05-10T07:09:14.762Z,1074.00
2023-05-10T07:10:14.767Z,1019.00
2023-05-10T07:11:14.768Z,1016.00
2023-05-10T07:12:15.896Z,1019.00
2023-05-10T07:13:14.899Z,1018.00
2023-05-10T07:14:14.760Z,1036.00
2023-05-10T07:15:14.872Z,1026.00
2023-05-10T07:16:14.748Z,1002.00
2023-05-10T07:17:14.749Z,1004.00
2023-05-10T07:18:14.831Z,1002.00
2023-05-10T07:19:14.861Z,983.00
2023-05-10T07:20:15.367Z,985.00
2023-05-10T07:21:15.992Z,987.00
2023-05-10T07:22:15.083Z,997.00
2023-05-10T07:23:15.120Z,976.00
2023-05-10T07:24:15.161Z,961.00
2023-05-10T07:25:15.466Z,947.00
2023-05-10T07:26:15.282Z,917.00
2023-05-10T07:27:15.325Z,917.00
2023-05-10T07:28:15.399Z,907.00
2023-05-10T07:29:15.473Z,901.00
2023-05-10T07:30:15.514Z,855.00
2023-05-10T07:31:15.551Z,854.00
2023-05-10T07:32:15.735Z,805.00
2023-05-10T07:33:15.811Z,802.00
2023-05-10T07:34:15.783Z,809.00
2023-05-10T07:35:16.072Z,792.00
2023-05-10T07:36:15.870Z,762.00
2023-05-10T07:37:15.925Z,749.00
2023-05-10T07:38:15.993Z,749.00
2023-05-10T07:39:24.409Z,745.00
2023-05-10T07:40:17.027Z,747.00
2023-05-10T07:41:16.019Z,747.00
2023-05-10T07:42:16.023Z,745.00
2023-05-10T07:43:16.016Z,758.00
2023-05-10T07:44:15.975Z,777.00
2023-05-10T07:45:16.190Z,797.00
2023-05-10T07:46:16.063Z,799.00
2023-05-10T07:47:16.019Z,793.00
2023-05-10T07:48:15.989Z,810.00
2023-05-10T07:49:15.986Z,818.00
2023-05-10T07:50:15.976Z,840.00
2023-05-10T07:51:16.078Z,866.00
2023-05-10T07:52:16.163Z,865.00
2023-05-10T07:53:16.167Z,839.00
2023-05-10T07:54:16.189Z,820.00
2023-05-10T07:55:16.478Z,805.00
2023-05-10T07:56:16.264Z,773.00
2023-05-10T07:57:16.343Z,805.00
2023-05-10T07:58:16.415Z,813.00
2023-05-10T07:59:16.425Z,824.00
2023-05-10T08:00:16.473Z,803.00
2023-05-10T08:01:16.528Z,692.00
2023-05-10T08:02:16.604Z,659.00
2023-05-10T08:03:16.738Z,646.00
2023-05-10T08:04:16.751Z,653.00
2023-05-10T08:05:16.836Z,656.00
2023-05-10T08:06:16.778Z,643.00
2023-05-10T08:07:16.810Z,594.00
2023-05-10T08:08:16.891Z,577.00
2023-05-10T08:09:16.956Z,559.00
2023-05-10T08:10:17.007Z,572.00
2023-05-10T08:11:17.026Z,562.00
2023-05-10T08:12:17.080Z,539.00
2023-05-10T08:13:17.125Z,558.00
2023-05-10T08:14:17.238Z,561.00
2023-05-10T08:15:17.520Z,544.00
2023-05-10T08:16:17.472Z,547.00
2023-05-10T08:17:19.692Z,543.00
2023-05-10T08:18:17.380Z,556.00
2023-05-10T08:19:17.341Z,568.00
2023-05-10T08:20:17.404Z,576.00
2023-05-10T08:21:17.404Z,588.00
2023-05-10T08:22:17.344Z,581.00
2023-05-10T08:23:17.323Z,596.00
2023-05-10T08:24:17.324Z,610.00
2023-05-10T08:25:17.615Z,623.00
2023-05-10T08:26:17.335Z,622.00
2023-05-10T08:27:17.301Z,617.00
2023-05-10T08:28:17.308Z,644.00
2023-05-10T08:29:17.310Z,636.00
2023-05-10T08:30:17.395Z,717.00
2023-05-10T08:31:17.370Z,782.00
2023-05-10T08:32:17.292Z,1287.00
2023-05-10T08:33:17.323Z,1280.00
2023-05-10T08:34:17.286Z,1160.00
2023-05-10T08:35:17.615Z,1100.00
2023-05-10T08:36:17.253Z,1202.00
2023-05-10T08:37:17.282Z,1308.00
2023-05-10T08:38:17.227Z,1433.00
2023-05-10T08:39:29.332Z,1603.00
2023-05-10T08:40:18.446Z,1606.00
2023-05-10T08:41:17.329Z,1617.00
2023-05-10T08:42:17.229Z,1664.00
2023-05-10T08:43:17.235Z,1755.00
2023-05-10T08:44:17.213Z,1789.00
2023-05-10T08:45:17.418Z,1773.00
2023-05-10T08:46:17.242Z,1652.00
2023-05-10T08:47:17.185Z,1704.00
2023-05-10T08:48:17.213Z,1747.00
2023-05-10T08:49:17.164Z,1663.00
2023-05-10T08:50:17.236Z,1662.00
2023-05-10T08:51:17.400Z,1754.00
2023-05-10T08:52:17.341Z,1720.00
2023-05-10T08:53:17.397Z,1802.00
2023-05-10T08:54:17.437Z,1791.00
2023-05-10T08:55:17.720Z,1859.00
2023-05-10T08:56:17.542Z,1825.00
2023-05-10T08:57:17.574Z,1816.00
2023-05-10T08:58:17.620Z,1840.00
2023-05-10T08:59:17.662Z,1890.00
2023-05-10T09:00:17.675Z,1920.00
2023-05-10T09:01:17.782Z,1935.00
2023-05-10T09:02:18.878Z,1932.00
2023-05-10T09:03:17.839Z,1895.00
2023-05-10T09:04:17.967Z,1915.00
2023-05-10T09:05:18.096Z,1915.00
2023-05-10T09:06:18.417Z,1948.00
2023-05-10T09:07:17.994Z,1947.00
2023-05-10T09:08:18.005Z,1970.00
2023-05-10T09:09:18.027Z,2012.00
2023-05-10T09:10:18.037Z,1983.00
2023-05-10T09:11:18.418Z,2024.00
2023-05-10T09:12:18.073Z,1960.00
2023-05-10T09:13:18.198Z,2004.00
2023-05-10T09:14:18.156Z,1986.00
2023-05-10T09:15:18.382Z,1978.00
2023-05-10T09:16:21.654Z,1959.00
2023-05-10T09:17:18.271Z,1959.00
2023-05-10T09:18:18.238Z,1966.00
2023-05-10T09:19:18.172Z,1983.00
2023-05-10T09:20:18.217Z,1939.00
2023-05-10T09:21:18.173Z,1946.00
2023-05-10T09:22:18.171Z,1963.00
2023-05-10T09:23:18.140Z,1892.00
2023-05-10T09:24:18.139Z,1909.00
2023-05-10T09:25:19.265Z,1929.00
2023-05-10T09:26:18.464Z,1971.00
2023-05-10T09:27:18.112Z,2009.00
2023-05-10T09:28:18.128Z,2008.00
2023-05-10T09:29:18.231Z,1960.00
2023-05-10T09:30:18.105Z,1904.00
2023-05-10T09:31:18.899Z,1901.00
2023-05-10T09:32:18.095Z,1851.00
2023-05-10T09:33:18.088Z,1871.00
2023-05-10T09:34:18.102Z,1901.00
2023-05-10T09:35:18.233Z,1856.00
2023-05-10T09:36:18.146Z,1911.00
2023-05-10T09:37:18.084Z,1951.00
2023-05-10T09:38:18.068Z,1930.00
2023-05-10T09:39:18.050Z,1933.00
2023-05-10T09:40:18.079Z,2007.00
2023-05-10T09:41:18.453Z,2022.00
2023-05-10T09:42:18.019Z,2022.00
2023-05-10T09:43:18.040Z,1992.00
2023-05-10T09:44:18.026Z,2022.00
2023-05-10T09:45:18.172Z,1968.00
2023-05-10T09:46:18.056Z,1976.00
2023-05-10T09:47:17.990Z,2024.00
2023-05-10T09:48:18.010Z,1981.00
2023-05-10T09:49:17.978Z,1968.00
2023-05-10T09:50:18.030Z,2021.00
2023-05-10T09:51:18.437Z,2016.00
2023-05-10T09:52:17.977Z,2025.00
2023-05-10T09:53:17.969Z,1840.00
2023-05-10T09:54:17.976Z,1745.00
2023-05-10T09:55:18.190Z,1732.00
2023-05-10T09:56:18.428Z,1686.00
2023-05-10T09:57:17.951Z,1621.00
2023-05-10T09:58:18.015Z,1583.00
2023-05-10T09:59:17.933Z,1441.00
2023-05-10T10:00:17.913Z,1476.00
2023-05-10T10:01:17.968Z,1466.00
2023-05-10T10:02:17.927Z,1480.00
2023-05-10T10:03:17.953Z,1426.00
2023-05-10T10:04:17.904Z,1347.00
2023-05-10T10:05:18.109Z,1344.00
2023-05-10T10:06:29.056Z,1265.00
2023-05-10T10:07:18.877Z,1255.00
2023-05-10T10:08:17.874Z,1201.00
2023-05-10T10:09:17.856Z,1189.00
2023-05-10T10:10:17.855Z,1246.00
2023-05-10T10:11:17.954Z,1294.00
2023-05-10T10:12:17.820Z,1292.00
2023-05-10T10:13:17.822Z,1292.00
2023-05-10T10:14:17.837Z,1317.00
2023-05-10T10:15:18.374Z,1311.00
2023-05-10T10:16:17.871Z,1317.00
2023-05-10T10:17:17.824Z,1236.00
2023-05-10T10:18:17.825Z,1201.00
2023-05-10T10:19:17.791Z,1196.00
2023-05-10T10:20:18.038Z,1126.00
2023-05-10T10:21:17.788Z,1161.00
2023-05-10T10:22:17.791Z,1091.00
2023-05-10T10:23:17.987Z,1105.00
2023-05-10T10:24:17.752Z,1125.00
2023-05-10T10:25:18.099Z,1178.00
2023-05-10T10:26:17.972Z,1164.00
2023-05-10T10:27:17.801Z,1180.00
2023-05-10T10:28:17.833Z,1142.00
2023-05-10T10:29:17.902Z,1164.00
2023-05-10T10:30:17.905Z,1102.00
2023-05-10T10:31:17.993Z,960.00
2023-05-10T10:32:17.984Z,949.00
2023-05-10T10:33:27.920Z,938.00
2023-05-10T10:34:19.031Z,941.00
2023-05-10T10:35:18.301Z,948.00
2023-05-10T10:36:19.385Z,961.00
2023-05-10T10:37:18.044Z,1011.00
2023-05-10T10:38:17.967Z,1022.00
2023-05-10T10:39:17.975Z,1057.00
2023-05-10T10:40:17.994Z,1087.00
2023-05-10T10:41:17.954Z,1101.00
2023-05-10T10:42:17.961Z,1077.00
2023-05-10T10:43:17.944Z,1037.00
2023-05-10T10:44:17.940Z,986.00
2023-05-10T10:45:18.305Z,1006.00
2023-05-10T10:46:18.076Z,989.00
2023-05-10T10:47:18.013Z,967.00
2023-05-10T10:48:17.918Z,958.00
2023-05-10T10:49:17.942Z,885.00
2023-05-10T10:50:17.876Z,878.00
2023-05-10T10:51:17.859Z,922.00
2023-05-10T10:52:17.896Z,889.00
2023-05-10T10:53:18.040Z,773.00
2023-05-10T10:54:17.980Z,836.00
2023-05-10T10:55:18.250Z,855.00
2023-05-10T10:56:18.099Z,974.00
2023-05-10T10:57:18.138Z,967.00
2023-05-10T10:58:18.184Z,923.00
2023-05-10T10:59:18.291Z,869.00
2023-05-10T11:00:18.348Z,787.00
2023-05-10T11:01:18.467Z,802.00
2023-05-10T11:02:18.567Z,822.00
2023-05-10T11:03:18.486Z,815.00
2023-05-10T11:04:18.534Z,698.00
2023-05-10T11:05:18.645Z,690.00
2023-05-10T11:06:18.626Z,695.00
2023-05-10T11:07:18.663Z,737.00
2023-05-10T11:08:18.697Z,814.00
2023-05-10T11:09:18.767Z,789.00
2023-05-10T11:10:18.781Z,767.00
2023-05-10T11:11:18.880Z,739.00
2023-05-10T11:12:18.883Z,692.00
2023-05-10T11:13:18.994Z,648.00
2023-05-10T11:14:19.033Z,617.00
2023-05-10T11:15:19.083Z,575.00
2023-05-10T11:16:19.195Z,570.00
2023-05-10T11:17:19.119Z,559.00
2023-05-10T11:18:19.191Z,549.00
2023-05-10T11:19:19.205Z,532.00
2023-05-10T11:20:19.487Z,508.00
2023-05-10T11:21:19.324Z,504.00
2023-05-10T11:22:19.357Z,529.00
2023-05-10T11:23:19.431Z,525.00
2023-05-10T11:24:19.443Z,535.00
2023-05-10T11:25:19.538Z,543.00
2023-05-10T11:26:19.562Z,542.00
2023-05-10T11:27:20.006Z,574.00
2023-05-10T11:28:19.685Z,627.00
2023-05-10T11:29:19.723Z,655.00
2023-05-10T11:30:19.977Z,676.00
2023-05-10T11:31:19.939Z,851.00
2023-05-10T11:32:19.996Z,962.00
2023-05-10T11:33:19.935Z,1035.00
2023-05-10T11:34:19.999Z,1068.00
2023-05-10T11:35:20.072Z,1105.00
2023-05-10T11:36:20.096Z,1134.00
2023-05-10T11:37:20.490Z,1138.00
2023-05-10T11:38:20.201Z,1197.00
2023-05-10T11:39:20.327Z,1227.00
2023-05-10T11:40:20.488Z,1238.00
2023-05-10T11:41:20.334Z,1346.00
2023-05-10T11:42:20.440Z,1399.00
2023-05-10T11:43:20.488Z,1415.00
2023-05-10T11:44:20.470Z,1430.00
2023-05-10T11:45:20.533Z,1452.00
2023-05-10T11:46:20.538Z,1476.00
2023-05-10T11:47:20.672Z,1490.00
2023-05-10T11:48:20.676Z,1501.00
2023-05-10T11:49:20.694Z,1527.00
2023-05-10T11:50:20.727Z,1544.00
2023-05-10T11:51:20.824Z,1530.00
2023-05-10T11:52:20.816Z,1545.00
2023-05-10T11:53:20.827Z,1543.00
2023-05-10T11:54:20.856Z,1575.00
2023-05-10T11:55:20.878Z,1571.00
2023-05-10T11:56:20.896Z,1584.00
2023-05-10T11:57:20.935Z,1600.00
2023-05-10T11:58:20.973Z,1603.00
2023-05-10T11:59:21.011Z,1600.00
2023-05-10T12:00:21.031Z,1628.00
2023-05-10T12:01:21.031Z,1625.00
2023-05-10T12:02:21.135Z,1607.00
2023-05-10T12:03:21.176Z,1618.00
2023-05-10T12:04:21.411Z,1628.00
2023-05-10T12:05:21.196Z,1614.00
2023-05-10T12:06:21.218Z,1613.00
2023-05-10T12:07:21.243Z,1619.00
2023-05-10T12:08:21.268Z,1605.00
2023-05-10T12:09:35.406Z,1621.00